Time;durP1;ratioP1;P1;durP2;ratioP2;P2;SDS_P1;SDS_P2;PMS_P1;PMS_P2;Temp;Humidity;BMP_temperature;BMP_pressure;BME280_temperature;BME280_humidity;BME280_pressure;Samples;Min_cycle;Max_cycle;Signal;HPM_P1;HPM_P2
2022/08/02 00:02:05;;;;;;;7.70;5.47;;;;;;;;;;4876168;29;20037;-78
2022/08/02 00:04:31;;;;;;;10.45;6.68;;;;;;;;;;4875570;29;20054;-78
2022/08/02 00:06:57;;;;;;;15.05;5.65;;;;;;;;;;4876067;29;20073;-78
2022/08/02 00:09:23;;;;;;;18.35;6.85;;;;;;;;;;4875538;29;20459;-78
2022/08/02 00:11:49;;;;;;;11.38;7.35;;;;;;;;;;4876337;29;20036;-79
2022/08/02 00:14:15;;;;;;;23.05;9.30;;;;;;;;;;4878379;29;20064;-78
2022/08/02 00:16:40;;;;;;;19.25;7.70;;;;;;;;;;4876433;29;20569;-80
2022/08/02 00:19:06;;;;;;;15.80;8.75;;;;;;;;;;4874674;29;20045;-79
2022/08/02 00:21:32;;;;;;;18.02;7.35;;;;;;;;;;4875832;29;20045;-79
2022/08/02 00:23:59;;;;;;;27.67;10.55;;;;;;;;;;4875993;29;20053;-79
2022/08/02 00:26:24;;;;;;;12.77;7.00;;;;;;;;;;4875530;29;20047;-79
2022/08/02 00:28:50;;;;;;;21.52;8.77;;;;;;;;;;4875838;29;20065;-79
2022/08/02 00:31:16;;;;;;;24.27;7.05;;;;;;;;;;4878269;29;20152;-80
2022/08/02 00:33:42;;;;;;;17.10;8.85;;;;;;;;;;4879279;29;20132;-79
2022/08/02 00:36:08;;;;;;;40.38;8.60;;;;;;;;;;4862503;29;20044;-79
2022/08/02 00:38:34;;;;;;;13.40;8.20;;;;;;;;;;4879113;29;20053;-80
2022/08/02 00:41:00;;;;;;;26.27;8.70;;;;;;;;;;4879245;29;20519;-77
2022/08/02 00:43:26;;;;;;;22.38;8.90;;;;;;;;;;4879213;29;20069;-79
2022/08/02 00:45:52;;;;;;;26.77;8.50;;;;;;;;;;4879122;29;20053;-78
2022/08/02 00:48:18;;;;;;;22.70;10.35;;;;;;;;;;4878989;29;20076;-78
2022/08/02 00:50:43;;;;;;;23.50;9.98;;;;;;;;;;4878999;29;20053;-78
2022/08/02 00:53:09;;;;;;;26.33;11.60;;;;;;;;;;4878949;29;20510;-79
2022/08/02 00:55:36;;;;;;;25.48;8.90;;;;;;;;;;4878646;29;20061;-78
2022/08/02 00:58:02;;;;;;;26.98;8.20;;;;;;;;;;4879091;29;20041;-79
2022/08/02 01:00:27;;;;;;;18.67;8.45;;;;;;;;;;4861980;29;20108;-79
2022/08/02 01:02:53;;;;;;;22.88;9.30;;;;;;;;;;4878932;29;20052;-80
2022/08/02 01:05:19;;;;;;;14.20;7.00;;;;;;;;;;4878635;29;20131;-77
2022/08/02 01:07:45;;;;;;;10.35;6.57;;;;;;;;;;4878712;29;20053;-79
2022/08/02 01:10:11;;;;;;;14.73;7.15;;;;;;;;;;4877506;29;20197;-79
2022/08/02 01:12:37;;;;;;;14.27;7.05;;;;;;;;;;4878496;29;20426;-79
2022/08/02 01:15:04;;;;;;;12.68;6.80;;;;;;;;;;4862070;29;20045;-79
2022/08/02 01:17:33;;;;;;;19.10;6.93;;;;;;;;;;4878377;29;20077;-79
2022/08/02 01:20:02;;;;;;;10.25;7.07;;;;;;;;;;4878671;29;20041;-80
2022/08/02 01:22:47;;;;;;;16.33;7.20;;;;;;;;;;4878168;29;20057;-78
2022/08/02 01:25:32;;;;;;;16.30;7.43;;;;;;;;;;4861722;29;20128;-78
2022/08/02 01:28:07;;;;;;;12.95;7.68;;;;;;;;;;4878724;29;20045;-80
2022/08/02 01:30:33;;;;;;;14.68;6.47;;;;;;;;;;4878190;29;20407;-78
2022/08/02 01:32:59;;;;;;;17.95;7.45;;;;;;;;;;4862135;29;20117;-78
2022/08/02 01:35:37;;;;;;;13.40;6.13;;;;;;;;;;4862004;29;20060;-78
2022/08/02 01:38:02;;;;;;;13.88;6.70;;;;;;;;;;4876548;29;20333;-78
2022/08/02 01:40:29;;;;;;;8.10;6.05;;;;;;;;;;4881854;29;20326;-78
2022/08/02 01:42:57;;;;;;;15.15;6.95;;;;;;;;;;4861434;29;20089;-79
2022/08/02 01:45:27;;;;;;;12.25;7.78;;;;;;;;;;4861089;29;20049;-80
2022/08/02 01:47:53;;;;;;;16.92;7.72;;;;;;;;;;4861654;29;20082;-79
2022/08/02 01:50:20;;;;;;;7.82;7.00;;;;;;;;;;4861625;29;20037;-78
2022/08/02 01:52:47;;;;;;;12.20;6.57;;;;;;;;;;4878359;29;20045;-78
2022/08/02 01:55:15;;;;;;;19.95;9.05;;;;;;;;;;4861251;29;20049;-79
2022/08/02 01:57:45;;;;;;;21.38;10.00;;;;;;;;;;4877210;29;20048;-78
2022/08/02 02:00:11;;;;;;;21.83;9.77;;;;;;;;;;4887680;29;20041;-80
2022/08/02 02:02:40;;;;;;;15.40;8.35;;;;;;;;;;4893728;29;20053;-79
2022/08/02 02:05:06;;;;;;;18.77;10.27;;;;;;;;;;4886747;29;20506;-79
2022/08/02 02:07:32;;;;;;;24.40;9.20;;;;;;;;;;4877038;29;20052;-80
2022/08/02 02:09:58;;;;;;;16.90;9.75;;;;;;;;;;4861103;29;20053;-80
2022/08/02 02:12:24;;;;;;;22.27;10.40;;;;;;;;;;4877596;29;20056;-79
2022/08/02 02:15:10;;;;;;;17.88;10.52;;;;;;;;;;4863769;29;20563;-79
2022/08/02 02:17:36;;;;;;;15.75;9.20;;;;;;;;;;4875953;29;20422;-79
2022/08/02 02:20:02;;;;;;;23.50;10.95;;;;;;;;;;4877438;29;20079;-78
2022/08/02 02:22:29;;;;;;;18.92;10.88;;;;;;;;;;4860508;29;20044;-78
2022/08/02 02:24:54;;;;;;;26.75;11.15;;;;;;;;;;4877404;29;20040;-79
2022/08/02 02:27:21;;;;;;;21.92;10.68;;;;;;;;;;4875962;29;20507;-78
2022/08/02 02:29:47;;;;;;;23.42;11.07;;;;;;;;;;4876719;29;20505;-78
2022/08/02 02:32:13;;;;;;;23.83;11.07;;;;;;;;;;4877404;29;20128;-78
2022/08/02 02:34:40;;;;;;;10.90;8.77;;;;;;;;;;4860539;29;20041;-79
2022/08/02 02:37:07;;;;;;;13.25;9.02;;;;;;;;;;4876643;29;20109;-78
2022/08/02 02:39:33;;;;;;;19.15;11.02;;;;;;;;;;4877202;29;20127;-79
2022/08/02 02:42:00;;;;;;;15.75;10.07;;;;;;;;;;4876238;29;20127;-78
2022/08/02 02:44:26;;;;;;;15.13;10.55;;;;;;;;;;4877012;29;20071;-78
2022/08/02 02:46:52;;;;;;;16.63;8.20;;;;;;;;;;4860166;29;20048;-79
2022/08/02 02:49:19;;;;;;;13.40;7.93;;;;;;;;;;4875683;29;20524;-79
2022/08/02 02:51:45;;;;;;;21.45;10.57;;;;;;;;;;4875110;29;20057;-77
2022/08/02 02:54:11;;;;;;;22.52;10.57;;;;;;;;;;4876146;29;20051;-77
2022/08/02 02:56:37;;;;;;;21.95;9.45;;;;;;;;;;4875002;29;20061;-77
2022/08/02 02:59:02;;;;;;;16.75;9.60;;;;;;;;;;4876634;29;20238;-78
2022/08/02 03:01:31;;;;;;;21.75;9.98;;;;;;;;;;4859630;29;20052;-78
2022/08/02 03:03:58;;;;;;;13.25;9.63;;;;;;;;;;4876716;29;20049;-78
2022/08/02 03:06:25;;;;;;;16.63;9.93;;;;;;;;;;4876338;29;20070;-78
2022/08/02 03:08:51;;;;;;;24.17;9.93;;;;;;;;;;4876511;29;20147;-78
2022/08/02 03:11:17;;;;;;;17.00;7.25;;;;;;;;;;4876640;29;20472;-78
2022/08/02 03:13:43;;;;;;;11.70;8.20;;;;;;;;;;4876149;29;20052;-77
2022/08/02 03:16:09;;;;;;;8.10;5.85;;;;;;;;;;4875226;29;20040;-79
2022/08/02 03:18:39;;;;;;;20.25;6.40;;;;;;;;;;4859479;29;20417;-78
2022/08/02 03:21:06;;;;;;;12.07;7.15;;;;;;;;;;4876264;29;20041;-77
2022/08/02 03:23:31;;;;;;;13.88;7.20;;;;;;;;;;4876030;29;20525;-77
2022/08/02 03:25:57;;;;;;;21.42;8.68;;;;;;;;;;4876381;29;20029;-77
2022/08/02 03:28:23;;;;;;;12.02;6.20;;;;;;;;;;4876690;29;20089;-77
2022/08/02 03:30:49;;;;;;;18.45;9.05;;;;;;;;;;4881921;29;20048;-77
2022/08/02 03:33:15;;;;;;;9.48;6.28;;;;;;;;;;4881947;29;20177;-78
2022/08/02 03:35:41;;;;;;;9.65;6.38;;;;;;;;;;4875769;29;20080;-78
2022/08/02 03:38:07;;;;;;;13.85;7.90;;;;;;;;;;4875072;29;20045;-77
2022/08/02 03:40:33;;;;;;;16.38;7.93;;;;;;;;;;4875709;29;20056;-78
2022/08/02 03:43:00;;;;;;;20.20;6.65;;;;;;;;;;4876165;29;20059;-78
2022/08/02 03:45:26;;;;;;;16.77;8.65;;;;;;;;;;4874692;29;20136;-77
2022/08/02 03:47:52;;;;;;;12.98;6.72;;;;;;;;;;4843700;29;20102;-78
2022/08/02 03:50:17;;;;;;;12.45;7.95;;;;;;;;;;4876011;29;20057;-78
2022/08/02 03:52:45;;;;;;;18.92;8.00;;;;;;;;;;4874404;29;20055;-77
2022/08/02 03:55:11;;;;;;;15.60;8.25;;;;;;;;;;4875599;29;20044;-78
2022/08/02 03:57:38;;;;;;;10.90;7.35;;;;;;;;;;4875728;29;20077;-78
2022/08/02 04:00:05;;;;;;;7.47;6.07;;;;;;;;;;4874474;29;20045;-80
2022/08/02 04:02:38;;;;;;;18.88;6.88;;;;;;;;;;4875715;29;20060;-78
2022/08/02 04:05:04;;;;;;;10.50;5.90;;;;;;;;;;4876763;29;20045;-77
2022/08/02 04:07:31;;;;;;;12.25;5.78;;;;;;;;;;4879494;29;20132;-79
2022/08/02 04:09:57;;;;;;;15.23;6.30;;;;;;;;;;4862729;29;20053;-77
2022/08/02 04:12:23;;;;;;;8.13;5.75;;;;;;;;;;4879695;29;20052;-79
2022/08/02 04:14:48;;;;;;;13.18;6.63;;;;;;;;;;4879115;29;20041;-79
2022/08/02 04:17:14;;;;;;;12.77;5.63;;;;;;;;;;4879525;29;20044;-79
2022/08/02 04:19:47;;;;;;;15.40;5.82;;;;;;;;;;4879159;29;20663;-78
2022/08/02 04:22:15;;;;;;;10.77;5.30;;;;;;;;;;4879150;29;20063;-80
2022/08/02 04:24:43;;;;;;;6.35;4.70;;;;;;;;;;4877790;29;20089;-77
2022/08/02 04:27:09;;;;;;;8.98;4.97;;;;;;;;;;4877834;29;20048;-79
2022/08/02 04:29:35;;;;;;;11.30;4.80;;;;;;;;;;4878932;29;20113;-78
2022/08/02 04:32:01;;;;;;;7.13;5.22;;;;;;;;;;4876060;29;20060;-76
2022/08/02 04:34:27;;;;;;;10.32;5.13;;;;;;;;;;4879069;29;20072;-78
2022/08/02 04:36:53;;;;;;;9.10;5.20;;;;;;;;;;4878920;29;20613;-78
2022/08/02 04:39:19;;;;;;;12.15;4.97;;;;;;;;;;4879442;29;20072;-79
2022/08/02 04:41:46;;;;;;;5.38;4.00;;;;;;;;;;4877442;29;20051;-79
2022/08/02 04:44:12;;;;;;;8.70;4.25;;;;;;;;;;4877765;29;20104;-78
2022/08/02 04:46:38;;;;;;;8.85;4.45;;;;;;;;;;4878719;29;20052;-79
2022/08/02 04:49:04;;;;;;;12.38;4.57;;;;;;;;;;4878797;29;20056;-78
2022/08/02 04:51:33;;;;;;;7.75;4.53;;;;;;;;;;4878581;29;20045;-78
2022/08/02 04:53:58;;;;;;;10.20;4.63;;;;;;;;;;4878944;29;20518;-78
2022/08/02 04:56:25;;;;;;;8.15;4.00;;;;;;;;;;4879272;29;20367;-78
2022/08/02 04:58:51;;;;;;;5.35;4.00;;;;;;;;;;4863337;29;20104;-78
2022/08/02 05:01:16;;;;;;;4.80;3.75;;;;;;;;;;4879717;29;20061;-79
2022/08/02 05:03:43;;;;;;;5.22;4.10;;;;;;;;;;4879695;29;20105;-79
2022/08/02 05:06:08;;;;;;;4.75;3.72;;;;;;;;;;4868341;29;20149;-78
2022/08/02 05:08:34;;;;;;;8.00;4.93;;;;;;;;;;4886067;29;20084;-79
2022/08/02 05:11:00;;;;;;;4.13;3.80;;;;;;;;;;4883909;29;20049;-78
2022/08/02 05:13:26;;;;;;;8.05;4.30;;;;;;;;;;4878955;29;20041;-78
2022/08/02 05:15:52;;;;;;;4.30;3.70;;;;;;;;;;4878292;29;20136;-78
2022/08/02 05:18:18;;;;;;;5.25;4.15;;;;;;;;;;4861123;29;20128;-79
2022/08/02 05:20:44;;;;;;;4.32;3.92;;;;;;;;;;4877928;29;20521;-80
2022/08/02 05:23:10;;;;;;;7.88;3.70;;;;;;;;;;4883623;29;20049;-78
2022/08/02 05:25:36;;;;;;;4.18;3.78;;;;;;;;;;4886272;29;20361;-81
2022/08/02 05:28:02;;;;;;;7.55;3.40;;;;;;;;;;4878607;29;20049;-77
2022/08/02 05:30:27;;;;;;;4.22;3.88;;;;;;;;;;4878265;29;20045;-79
2022/08/02 05:32:53;;;;;;;6.05;3.60;;;;;;;;;;4878216;29;20554;-78
2022/08/02 05:35:21;;;;;;;4.68;3.92;;;;;;;;;;4861504;29;20192;-80
2022/08/02 05:37:47;;;;;;;6.53;4.18;;;;;;;;;;4877871;29;20033;-79
2022/08/02 05:40:13;;;;;;;5.65;3.83;;;;;;;;;;4879624;29;20061;-80
2022/08/02 05:42:39;;;;;;;7.28;3.88;;;;;;;;;;4880153;29;20059;-80
2022/08/02 05:45:05;;;;;;;5.05;3.65;;;;;;;;;;4877938;29;20071;-79
2022/08/02 05:47:31;;;;;;;4.70;3.30;;;;;;;;;;4861179;29;20053;-78
2022/08/02 05:49:57;;;;;;;4.80;3.20;;;;;;;;;;4877356;29;20053;-78
2022/08/02 05:52:23;;;;;;;9.43;3.47;;;;;;;;;;4877613;29;20067;-79
2022/08/02 05:55:06;;;;;;;8.50;3.25;;;;;;;;;;4876983;29;20051;-78
2022/08/02 05:57:32;;;;;;;8.25;3.55;;;;;;;;;;4877450;29;20055;-78
2022/08/02 05:59:58;;;;;;;4.90;2.95;;;;;;;;;;4860658;29;20144;-79
2022/08/02 06:02:34;;;;;;;4.22;3.13;;;;;;;;;;4877540;29;20069;-80
2022/08/02 06:05:04;;;;;;;6.47;3.03;;;;;;;;;;4877500;29;20053;-78
2022/08/02 06:07:30;;;;;;;3.45;3.13;;;;;;;;;;4876459;29;20072;-80
2022/08/02 06:09:58;;;;;;;7.53;3.20;;;;;;;;;;4876200;29;20061;-81
2022/08/02 06:12:24;;;;;;;7.88;3.28;;;;;;;;;;4877200;29;20041;-79
2022/08/02 06:14:50;;;;;;;9.82;3.90;;;;;;;;;;4875883;29;20052;-79
2022/08/02 06:17:16;;;;;;;5.82;3.10;;;;;;;;;;4876150;29;20049;-79
2022/08/02 06:19:43;;;;;;;4.28;3.80;;;;;;;;;;4875909;29;20067;-78
2022/08/02 06:22:14;;;;;;;6.85;3.40;;;;;;;;;;4877148;29;20084;-80
2022/08/02 06:24:44;;;;;;;3.90;2.90;;;;;;;;;;4875793;29;20105;-78
2022/08/02 06:27:13;;;;;;;6.15;2.95;;;;;;;;;;4876988;29;20041;-78
2022/08/02 06:29:41;;;;;;;6.60;3.15;;;;;;;;;;4876846;29;20065;-78
2022/08/02 06:32:08;;;;;;;3.90;2.80;;;;;;;;;;4875631;29;20432;-79
2022/08/02 06:34:37;;;;;;;3.80;2.90;;;;;;;;;;4876962;29;20182;-78
2022/08/02 06:37:23;;;;;;;4.00;3.10;;;;;;;;;;4876743;29;20257;-79
2022/08/02 06:39:50;;;;;;;4.13;2.75;;;;;;;;;;4859833;29;20430;-79
2022/08/02 06:42:17;;;;;;;8.20;3.08;;;;;;;;;;4876829;29;20423;-79
2022/08/02 06:44:45;;;;;;;4.88;2.75;;;;;;;;;;4875379;29;20477;-80
2022/08/02 06:47:11;;;;;;;3.15;2.90;;;;;;;;;;4860271;29;20161;-79
2022/08/02 06:49:37;;;;;;;6.60;2.90;;;;;;;;;;4876686;29;20558;-80
2022/08/02 06:52:03;;;;;;;4.47;2.88;;;;;;;;;;4876541;29;20052;-80
2022/08/02 06:54:29;;;;;;;6.90;2.90;;;;;;;;;;4876839;29;20407;-79
2022/08/02 06:56:55;;;;;;;7.70;2.90;;;;;;;;;;4875888;29;20063;-80
2022/08/02 06:59:21;;;;;;;8.18;2.88;;;;;;;;;;4876732;29;20061;-80
2022/08/02 07:01:47;;;;;;;6.07;3.10;;;;;;;;;;4876201;29;20041;-80
2022/08/02 07:04:13;;;;;;;12.50;3.45;;;;;;;;;;4876826;29;20140;-78
2022/08/02 07:06:39;;;;;;;3.75;2.83;;;;;;;;;;4876651;29;20591;-79
2022/08/02 07:09:05;;;;;;;3.17;2.90;;;;;;;;;;4876309;29;20132;-79
2022/08/02 07:11:31;;;;;;;16.35;3.20;;;;;;;;;;4876490;29;20170;-79
2022/08/02 07:13:56;;;;;;;4.78;2.80;;;;;;;;;;4859755;29;20068;-79
2022/08/02 07:16:22;;;;;;;5.47;3.15;;;;;;;;;;4879136;29;20052;-78
2022/08/02 07:18:48;;;;;;;4.68;2.75;;;;;;;;;;4882579;29;20113;-81
2022/08/02 07:21:14;;;;;;;4.78;2.85;;;;;;;;;;4878116;29;20105;-80
2022/08/02 07:23:40;;;;;;;4.22;2.67;;;;;;;;;;4876302;29;20045;-79
2022/08/02 07:26:06;;;;;;;3.20;2.83;;;;;;;;;;4875800;29;20462;-80
2022/08/02 07:28:32;;;;;;;4.80;2.90;;;;;;;;;;4876039;29;20140;-79
2022/08/02 07:30:58;;;;;;;6.68;2.80;;;;;;;;;;4875794;29;20132;-78
2022/08/02 07:33:24;;;;;;;7.35;2.95;;;;;;;;;;4875055;29;20430;-79
2022/08/02 07:35:50;;;;;;;4.00;2.90;;;;;;;;;;4875749;29;20655;-79
2022/08/02 07:38:15;;;;;;;4.63;3.00;;;;;;;;;;4876538;29;20539;-80
2022/08/02 07:40:41;;;;;;;4.60;3.40;;;;;;;;;;4875481;29;20514;-78
2022/08/02 07:43:07;;;;;;;4.22;2.92;;;;;;;;;;4859384;29;20048;-81
2022/08/02 07:45:33;;;;;;;5.30;3.10;;;;;;;;;;4875969;29;20112;-79
2022/08/02 07:48:00;;;;;;;2.63;2.42;;;;;;;;;;4875626;29;20045;-78
2022/08/02 07:50:27;;;;;;;7.03;2.88;;;;;;;;;;4875947;29;20049;-78
2022/08/02 07:52:53;;;;;;;2.55;2.30;;;;;;;;;;4875585;29;20128;-79
2022/08/02 07:55:19;;;;;;;2.30;1.95;;;;;;;;;;4859141;29;20668;-80
2022/08/02 07:57:45;;;;;;;3.72;2.20;;;;;;;;;;4858655;29;20061;-80
2022/08/02 08:00:11;;;;;;;3.08;2.40;;;;;;;;;;4859285;29;20052;-78
2022/08/02 08:02:37;;;;;;;2.58;2.03;;;;;;;;;;4858886;29;20056;-79
2022/08/02 08:05:05;;;;;;;2.95;2.17;;;;;;;;;;4858867;29;20201;-79
2022/08/02 08:07:31;;;;;;;2.47;2.20;;;;;;;;;;4875566;29;20044;-78
2022/08/02 08:09:58;;;;;;;2.42;2.22;;;;;;;;;;4875530;29;20407;-79
2022/08/02 08:12:25;;;;;;;3.08;2.33;;;;;;;;;;4875882;29;20037;-80
2022/08/02 08:14:50;;;;;;;2.30;2.10;;;;;;;;;;4875379;29;20045;-79
2022/08/02 08:17:16;;;;;;;2.72;1.92;;;;;;;;;;4875608;29;20044;-77
2022/08/02 08:19:42;;;;;;;2.58;2.20;;;;;;;;;;4875813;29;20045;-79
2022/08/02 08:22:08;;;;;;;2.00;1.73;;;;;;;;;;4875287;29;20048;-78
2022/08/02 08:24:34;;;;;;;3.63;2.10;;;;;;;;;;4875779;29;20053;-79
2022/08/02 08:27:00;;;;;;;3.97;1.80;;;;;;;;;;4875262;29;20045;-80
2022/08/02 08:29:26;;;;;;;2.20;2.10;;;;;;;;;;4859168;29;20072;-78
2022/08/02 08:31:52;;;;;;;6.95;1.88;;;;;;;;;;4875294;29;20057;-78
2022/08/02 08:34:18;;;;;;;1.95;1.85;;;;;;;;;;4875980;29;20044;-78
2022/08/02 08:36:44;;;;;;;2.75;2.30;;;;;;;;;;4875450;29;20529;-78
2022/08/02 08:39:09;;;;;;;2.92;2.13;;;;;;;;;;4875937;29;20526;-79
2022/08/02 08:41:36;;;;;;;5.53;1.70;;;;;;;;;;4879332;29;20055;-79
2022/08/02 08:44:01;;;;;;;5.20;1.90;;;;;;;;;;4885394;29;20049;-79
2022/08/02 08:46:28;;;;;;;3.20;1.63;;;;;;;;;;4889957;29;20049;-78
2022/08/02 08:49:21;;;;;;;2.22;1.55;;;;;;;;;;4888541;29;20129;-79
2022/08/02 08:51:47;;;;;;;1.85;1.70;;;;;;;;;;4874477;29;20116;-79
2022/08/02 08:54:14;;;;;;;1.95;1.83;;;;;;;;;;4879369;29;20044;-79
2022/08/02 08:56:40;;;;;;;1.85;1.80;;;;;;;;;;4878685;29;20065;-80
2022/08/02 08:59:06;;;;;;;1.98;1.70;;;;;;;;;;4877309;29;20518;-79
2022/08/02 09:01:32;;;;;;;1.88;1.77;;;;;;;;;;4878635;29;20060;-80
2022/08/02 09:03:58;;;;;;;2.33;1.90;;;;;;;;;;4878488;29;20061;-80
2022/08/02 09:06:24;;;;;;;2.13;1.90;;;;;;;;;;4878662;29;20129;-80
2022/08/02 09:08:50;;;;;;;7.65;1.88;;;;;;;;;;4882033;29;20080;-81
2022/08/02 09:11:17;;;;;;;2.47;2.10;;;;;;;;;;4884001;29;20052;-80
2022/08/02 09:13:53;;;;;;;5.30;2.10;;;;;;;;;;4878686;29;20110;-79
2022/08/02 09:16:26;;;;;;;2.25;2.08;;;;;;;;;;4877267;29;20537;-80
2022/08/02 09:18:52;;;;;;;2.60;2.15;;;;;;;;;;4877128;29;20509;-78
2022/08/02 09:21:19;;;;;;;2.10;2.00;;;;;;;;;;4861394;29;20538;-79
2022/08/02 09:23:45;;;;;;;1.80;1.70;;;;;;;;;;4878136;29;20079;-78
2022/08/02 09:26:18;;;;;;;3.35;1.90;;;;;;;;;;4876764;29;20257;-79
2022/08/02 09:28:45;;;;;;;1.80;1.70;;;;;;;;;;4878025;29;20045;-79
2022/08/02 09:31:11;;;;;;;1.70;1.60;;;;;;;;;;4861318;29;20170;-79
2022/08/02 09:33:38;;;;;;;2.10;2.00;;;;;;;;;;4878186;29;20097;-79
2022/08/02 09:36:08;;;;;;;3.80;2.03;;;;;;;;;;4878022;29;20060;-79
2022/08/02 09:38:35;;;;;;;2.08;1.98;;;;;;;;;;4877085;29;20112;-79
2022/08/02 09:41:02;;;;;;;3.65;2.53;;;;;;;;;;4876662;29;20557;-80
2022/08/02 09:43:48;;;;;;;2.17;2.08;;;;;;;;;;4878218;29;20056;-79
2022/08/02 09:46:15;;;;;;;3.03;2.08;;;;;;;;;;4877529;29;20041;-80
2022/08/02 09:49:01;;;;;;;2.47;2.10;;;;;;;;;;4877698;29;20175;-79
2022/08/02 09:51:27;;;;;;;2.38;2.20;;;;;;;;;;4860752;29;20049;-77
2022/08/02 09:53:54;;;;;;;1.88;1.77;;;;;;;;;;4860905;29;20519;-81
2022/08/02 09:56:20;;;;;;;2.58;1.90;;;;;;;;;;4877645;29;20077;-80
2022/08/02 09:58:46;;;;;;;4.35;2.33;;;;;;;;;;4877855;29;20076;-81
2022/08/02 10:01:12;;;;;;;2.90;2.00;;;;;;;;;;4877479;29;20426;-80
2022/08/02 10:03:52;;;;;;;2.75;1.90;;;;;;;;;;4877334;29;20041;-79
2022/08/02 10:06:18;;;;;;;3.10;2.17;;;;;;;;;;4877697;29;20037;-80
2022/08/02 10:08:44;;;;;;;2.22;2.03;;;;;;;;;;4860750;29;20414;-80
2022/08/02 10:11:11;;;;;;;2.05;1.95;;;;;;;;;;4861069;29;20044;-79
2022/08/02 10:13:37;;;;;;;6.00;2.05;;;;;;;;;;4861587;29;20056;-82
2022/08/02 10:16:05;;;;;;;4.68;1.90;;;;;;;;;;4877419;29;20068;-79
2022/08/02 10:18:31;;;;;;;4.88;2.30;;;;;;;;;;4877470;29;20045;-81
2022/08/02 10:20:57;;;;;;;2.00;1.90;;;;;;;;;;4876924;29;20139;-80
2022/08/02 10:23:24;;;;;;;1.88;1.77;;;;;;;;;;4877153;29;20128;-78
2022/08/02 10:25:50;;;;;;;1.90;1.80;;;;;;;;;;4860371;29;20520;-80
2022/08/02 10:28:17;;;;;;;3.38;1.60;;;;;;;;;;4860212;29;20049;-79
2022/08/02 10:30:44;;;;;;;2.33;1.95;;;;;;;;;;4876971;29;20052;-80
2022/08/02 10:33:10;;;;;;;2.10;2.00;;;;;;;;;;4876524;29;20053;-80
2022/08/02 10:35:36;;;;;;;3.47;1.67;;;;;;;;;;4876635;29;20055;-79
2022/08/02 10:38:06;;;;;;;2.03;1.92;;;;;;;;;;4859830;29;20048;-77
2022/08/02 10:40:42;;;;;;;1.92;1.70;;;;;;;;;;4877110;29;20051;-79
2022/08/02 10:43:08;;;;;;;3.25;1.90;;;;;;;;;;4876590;29;20051;-79
2022/08/02 10:45:34;;;;;;;3.30;1.90;;;;;;;;;;4876655;29;20084;-79
2022/08/02 10:48:04;;;;;;;4.47;2.22;;;;;;;;;;4859799;29;20506;-80
2022/08/02 10:51:00;;;;;;;2.47;1.77;;;;;;;;;;4876598;29;20065;-79
2022/08/02 10:53:27;;;;;;;3.33;1.77;;;;;;;;;;4860527;29;20064;-80
2022/08/02 10:55:54;;;;;;;5.88;2.10;;;;;;;;;;4877337;29;20108;-80
2022/08/02 10:58:20;;;;;;;3.03;1.80;;;;;;;;;;4876506;29;20556;-80
2022/08/02 11:00:46;;;;;;;1.77;1.65;;;;;;;;;;4880628;29;20105;-79
2022/08/02 11:03:28;;;;;;;1.52;1.27;;;;;;;;;;4867803;29;20049;-80
2022/08/02 11:06:04;;;;;;;2.83;2.10;;;;;;;;;;4876601;29;20037;-79
2022/08/02 11:08:30;;;;;;;7.88;1.95;;;;;;;;;;4876290;29;20045;-80
2022/08/02 11:11:00;;;;;;;3.08;1.70;;;;;;;;;;4859490;29;20545;-80
2022/08/02 11:13:26;;;;;;;1.92;1.83;;;;;;;;;;4876200;29;20143;-79
2022/08/02 11:16:01;;;;;;;6.90;2.17;;;;;;;;;;4875600;29;20553;-80
2022/08/02 11:18:43;;;;;;;1.95;1.85;;;;;;;;;;4876300;29;20581;-80
2022/08/02 11:21:22;;;;;;;5.28;2.20;;;;;;;;;;4859277;29;20041;-78
2022/08/02 11:23:47;;;;;;;2.60;1.80;;;;;;;;;;4876253;29;20052;-79
2022/08/02 11:26:32;;;;;;;2.65;2.40;;;;;;;;;;4859759;29;20045;-79
2022/08/02 11:28:58;;;;;;;3.03;1.85;;;;;;;;;;4875975;29;20057;-81
2022/08/02 11:31:24;;;;;;;2.55;1.90;;;;;;;;;;4876109;29;20045;-80
2022/08/02 11:33:50;;;;;;;4.07;1.90;;;;;;;;;;4876297;29;20052;-80
2022/08/02 11:36:16;;;;;;;2.20;1.90;;;;;;;;;;4876176;29;20045;-79
2022/08/02 11:38:42;;;;;;;2.20;2.10;;;;;;;;;;4876164;29;20522;-80
2022/08/02 11:41:08;;;;;;;2.00;1.90;;;;;;;;;;4876055;29;20506;-79
2022/08/02 11:43:35;;;;;;;5.10;1.75;;;;;;;;;;4876383;29;20036;-79
2022/08/02 11:46:01;;;;;;;3.85;3.42;;;;;;;;;;4876888;29;20128;-79
2022/08/02 11:48:28;;;;;;;2.85;2.63;;;;;;;;;;4869931;29;20045;-81
2022/08/02 11:51:03;;;;;;;6.15;2.47;;;;;;;;;;4888119;29;20067;-79
2022/08/02 11:53:29;;;;;;;6.45;2.72;;;;;;;;;;4879991;29;20041;-78
2022/08/02 11:55:55;;;;;;;8.70;8.00;;;;;;;;;;4843978;29;20061;-82
2022/08/02 11:58:22;;;;;;;2.72;2.53;;;;;;;;;;4876493;29;20132;-80
2022/08/02 12:00:48;;;;;;;2.63;2.42;;;;;;;;;;4876071;29;20143;-80
2022/08/02 12:03:13;;;;;;;3.35;2.67;;;;;;;;;;4875639;29;20561;-78
2022/08/02 12:05:39;;;;;;;2.45;2.35;;;;;;;;;;4859249;29;20108;-79
2022/08/02 12:08:06;;;;;;;3.45;3.10;;;;;;;;;;4875609;29;20056;-80
2022/08/02 12:10:32;;;;;;;6.18;5.57;;;;;;;;;;4875822;29;20045;-79
2022/08/02 12:12:59;;;;;;;3.20;3.00;;;;;;;;;;4875551;29;20462;-78
2022/08/02 12:15:32;;;;;;;5.75;2.63;;;;;;;;;;4875901;29;20136;-79
2022/08/02 12:20:42;;;;;;;2.45;2.13;;;;;;;;;;4875739;29;20052;-79
2022/08/02 12:23:08;;;;;;;8.38;2.45;;;;;;;;;;4875500;29;20049;-80
2022/08/02 12:25:34;;;;;;;5.68;2.70;;;;;;;;;;4875973;29;20057;-80
2022/08/02 12:28:13;;;;;;;4.40;2.38;;;;;;;;;;4878898;29;20083;-80
2022/08/02 12:30:49;;;;;;;3.70;2.10;;;;;;;;;;4862317;29;20139;-79
2022/08/02 12:33:15;;;;;;;2.45;2.05;;;;;;;;;;4878756;29;20289;-80
2022/08/02 12:35:41;;;;;;;2.10;2.00;;;;;;;;;;4877910;29;20400;-80
2022/08/02 12:38:10;;;;;;;2.13;2.03;;;;;;;;;;4877788;29;20461;-80
2022/08/02 12:40:36;;;;;;;2.38;2.17;;;;;;;;;;4879225;29;20403;-79
2022/08/02 12:43:03;;;;;;;2.10;2.00;;;;;;;;;;4878676;29;20084;-80
2022/08/02 12:45:30;;;;;;;3.55;2.00;;;;;;;;;;4877802;29;20044;-80
2022/08/02 12:47:56;;;;;;;2.88;1.92;;;;;;;;;;4877384;29;20502;-80
2022/08/02 12:50:29;;;;;;;8.77;2.25;;;;;;;;;;4878861;29;20133;-81
2022/08/02 12:53:12;;;;;;;2.28;2.10;;;;;;;;;;4884533;29;20123;-80
2022/08/02 12:55:54;;;;;;;4.97;1.90;;;;;;;;;;4863443;29;20552;-79
2022/08/02 12:58:20;;;;;;;2.17;2.00;;;;;;;;;;4877877;29;20586;-80
2022/08/02 13:00:53;;;;;;;2.28;2.08;;;;;;;;;;4878767;29;20075;-80
2022/08/02 13:03:19;;;;;;;2.10;2.00;;;;;;;;;;4878560;29;20041;-80
2022/08/02 13:05:45;;;;;;;2.22;2.13;;;;;;;;;;4879088;29;20037;-81
2022/08/02 13:08:11;;;;;;;5.35;4.80;;;;;;;;;;4861655;29;20041;-80
2022/08/02 13:10:37;;;;;;;3.95;2.60;;;;;;;;;;4877543;29;20105;-80
2022/08/02 13:13:03;;;;;;;4.47;2.40;;;;;;;;;;4878284;29;20052;-79
2022/08/02 13:15:29;;;;;;;4.72;2.20;;;;;;;;;;4878490;29;20048;-80
2022/08/02 13:17:57;;;;;;;3.08;2.33;;;;;;;;;;4861532;29;20052;-79
2022/08/02 13:20:26;;;;;;;5.90;2.42;;;;;;;;;;4878188;29;20056;-79
2022/08/02 13:22:53;;;;;;;2.23;2.13;;;;;;;;;;4861592;29;20052;-81
2022/08/02 13:25:22;;;;;;;2.35;1.80;;;;;;;;;;4878126;29;20049;-80
2022/08/02 13:27:48;;;;;;;2.37;1.90;;;;;;;;;;4878221;29;20459;-81
2022/08/02 13:30:14;;;;;;;7.45;1.90;;;;;;;;;;4877993;29;20071;-79
2022/08/02 13:32:40;;;;;;;1.98;1.88;;;;;;;;;;4876728;29;20486;-80
2022/08/02 13:35:06;;;;;;;2.47;2.28;;;;;;;;;;4878191;29;20444;-80
2022/08/02 13:37:32;;;;;;;2.10;2.00;;;;;;;;;;4877884;29;20098;-82
2022/08/02 13:39:57;;;;;;;3.90;2.10;;;;;;;;;;4846562;29;20197;-81
2022/08/02 13:42:23;;;;;;;2.35;2.17;;;;;;;;;;4861360;29;20545;-80
2022/08/02 13:44:49;;;;;;;10.18;1.95;;;;;;;;;;4877924;29;20070;-81
2022/08/02 13:47:15;;;;;;;2.80;2.50;;;;;;;;;;4877738;29;20124;-82
2022/08/02 13:49:41;;;;;;;3.67;2.17;;;;;;;;;;4877943;29;20065;-81
2022/08/02 13:52:07;;;;;;;2.50;2.30;;;;;;;;;;4877575;29;20041;-80
2022/08/02 13:54:33;;;;;;;2.08;1.95;;;;;;;;;;4877974;29;20426;-81
2022/08/02 13:56:59;;;;;;;2.47;2.25;;;;;;;;;;4877737;29;20425;-80
2022/08/02 13:59:25;;;;;;;2.55;2.10;;;;;;;;;;4877633;29;20609;-79
2022/08/02 14:01:51;;;;;;;5.38;2.25;;;;;;;;;;4877692;29;20140;-80
2022/08/02 14:04:17;;;;;;;3.20;1.77;;;;;;;;;;4877391;29;20055;-80
2022/08/02 14:06:43;;;;;;;2.30;2.17;;;;;;;;;;4877712;29;20045;-80
2022/08/02 14:09:09;;;;;;;3.95;2.35;;;;;;;;;;4877421;29;20061;-81
2022/08/02 14:11:35;;;;;;;3.95;2.15;;;;;;;;;;4876608;29;20045;-81
2022/08/02 14:14:01;;;;;;;6.00;2.55;;;;;;;;;;4860808;29;20079;-80
2022/08/02 14:16:27;;;;;;;3.60;2.40;;;;;;;;;;4877165;29;20048;-80
2022/08/02 14:18:53;;;;;;;2.33;2.15;;;;;;;;;;4877173;29;20049;-79
2022/08/02 14:21:19;;;;;;;3.63;2.05;;;;;;;;;;4860385;29;20536;-81
2022/08/02 14:23:45;;;;;;;2.50;2.30;;;;;;;;;;4877461;29;20072;-81
2022/08/02 14:26:11;;;;;;;2.17;1.95;;;;;;;;;;4876942;29;20041;-80
2022/08/02 14:28:37;;;;;;;5.53;1.90;;;;;;;;;;4877053;29;20433;-81
2022/08/02 14:31:03;;;;;;;2.35;2.15;;;;;;;;;;4877092;29;20051;-80
2022/08/02 14:33:29;;;;;;;4.88;2.20;;;;;;;;;;4876963;29;20117;-79
2022/08/02 14:35:55;;;;;;;3.00;1.90;;;;;;;;;;4877388;29;20505;-80
2022/08/02 14:38:22;;;;;;;3.83;2.25;;;;;;;;;;4876892;29;20057;-79
2022/08/02 14:40:48;;;;;;;3.08;2.30;;;;;;;;;;4876574;29;20415;-79
2022/08/02 14:44:02;;;;;;;2.97;2.22;;;;;;;;;;4881720;29;20060;-81